Time;durP1;ratioP1;P1;durP2;ratioP2;P2;SDS_P1;SDS_P2;PMS_P1;PMS_P2;Temp;Humidity;BMP_temperature;BMP_pressure;BME280_temperature;BME280_humidity;BME280_pressure;Samples;Min_cycle;Max_cycle;Signal;HPM_P1;HPM_P2
2022/08/02 00:00:56;;;;;;;4.90;4.60;;;;;;;-143.84;67.10;45020.50;5111794;28;20451;-70
2022/08/02 00:03:23;;;;;;;4.93;4.40;;;;;;;-143.84;67.30;45018.59;5111162;28;20475;-70
2022/08/02 00:05:50;;;;;;;5.23;4.73;;;;;;;-143.84;67.01;45007.19;5111366;28;20446;-70
2022/08/02 00:08:18;;;;;;;4.87;4.23;;;;;;;-143.84;66.96;45037.66;5111382;28;20857;-70
2022/08/02 00:10:45;;;;;;;4.50;4.20;;;;;;;-143.84;67.15;45045.25;5111364;28;21310;-70
2022/08/02 00:13:13;;;;;;;4.07;3.77;;;;;;;-143.84;67.27;45024.31;5111305;28;20491;-70
2022/08/02 00:15:40;;;;;;;4.30;4.03;;;;;;;-143.84;67.13;45010.97;5111096;28;20450;-70
2022/08/02 00:18:08;;;;;;;7.67;3.90;;;;;;;-143.84;67.29;45012.88;5111045;28;21091;-70
2022/08/02 00:20:35;;;;;;;7.27;4.00;;;;;;;-143.84;67.26;45018.59;5111235;28;20427;-70
2022/08/02 00:23:02;;;;;;;4.30;3.97;;;;;;;-143.84;67.59;45020.50;5110882;28;20474;-70
2022/08/02 00:25:29;;;;;;;4.57;4.17;;;;;;;-143.84;67.92;45010.97;5110973;28;20518;-70
2022/08/02 00:27:57;;;;;;;3.87;3.57;;;;;;;-143.84;67.95;45037.66;5110147;28;20430;-70
2022/08/02 00:30:25;;;;;;;3.60;3.40;;;;;;;-143.84;67.87;45016.69;5110488;28;20454;-70
2022/08/02 00:32:52;;;;;;;4.60;4.30;;;;;;;-143.84;68.13;45031.94;5110781;28;20454;-70
2022/08/02 00:35:20;;;;;;;3.70;3.30;;;;;;;-143.84;68.11;45047.16;5110998;28;20435;-70
2022/08/02 00:37:47;;;;;;;4.37;4.10;;;;;;;-143.84;67.85;45020.50;5110657;28;20431;-70
2022/08/02 00:40:14;;;;;;;3.80;3.50;;;;;;;-143.84;68.39;45020.50;5110727;28;20799;-70
2022/08/02 00:42:42;;;;;;;3.43;3.10;;;;;;;-143.84;68.52;45005.28;5110468;28;20481;-70
2022/08/02 00:45:10;;;;;;;4.63;4.23;;;;;;;-143.84;68.64;45031.94;5110541;28;20446;-70
2022/08/02 00:47:39;;;;;;;3.93;3.73;;;;;;;-143.84;69.04;45022.41;5110746;28;20540;-70
2022/08/02 00:50:06;;;;;;;4.17;3.87;;;;;;;-143.84;69.08;44990.03;5105154;28;21243;-70
2022/08/02 00:52:33;;;;;;;4.43;4.07;;;;;;;-143.84;69.09;45022.41;5110654;28;20435;-70
2022/08/02 00:55:00;;;;;;;4.23;3.60;;;;;;;-143.84;69.38;45024.31;5110425;28;21013;-70
2022/08/02 00:57:28;;;;;;;4.50;4.20;;;;;;;-143.84;69.73;45005.28;5110224;28;20470;-70
2022/08/02 00:59:55;;;;;;;4.03;3.80;;;;;;;-143.84;69.56;45026.22;5108420;28;20443;-70
2022/08/02 01:02:22;;;;;;;3.90;3.47;;;;;;;-143.84;69.68;45012.88;5088854;28;20963;-70
2022/08/02 01:04:50;;;;;;;4.30;4.00;;;;;;;-143.84;69.92;45024.31;5090066;28;20497;-70
2022/08/02 01:07:18;;;;;;;4.03;3.73;;;;;;;-143.84;70.00;45024.31;5089942;28;20443;-70
2022/08/02 01:09:45;;;;;;;4.53;4.23;;;;;;;-143.84;70.42;45014.78;5089595;28;20933;-70
2022/08/02 01:12:13;;;;;;;7.23;4.30;;;;;;;-143.84;71.18;45033.84;5089651;28;20565;-70
2022/08/02 01:14:41;;;;;;;4.73;4.33;;;;;;;-143.84;71.66;45028.13;5089411;28;20459;-70
2022/08/02 01:17:15;;;;;;;4.03;3.73;;;;;;;-143.84;71.96;45039.53;5088473;28;20457;-70
2022/08/02 01:19:51;;;;;;;4.80;4.40;;;;;;;-143.84;72.54;45041.44;5089208;28;20435;-70
2022/08/02 01:22:46;;;;;;;4.77;4.10;;;;;;;-143.84;72.69;45033.84;5089263;28;20522;-70
2022/08/02 01:25:26;;;;;;;4.10;3.90;;;;;;;-143.84;73.04;45009.09;5089637;28;20538;-70
2022/08/02 01:28:16;;;;;;;4.40;4.00;;;;;;;-143.84;73.46;45030.03;5089636;28;20436;-70
2022/08/02 01:30:47;;;;;;;4.67;4.37;;;;;;;-143.84;73.53;45045.25;5088996;28;20440;-70
2022/08/02 01:33:18;;;;;;;5.47;4.00;;;;;;;-143.84;73.64;45026.22;5088995;28;20440;-70
2022/08/02 01:35:52;;;;;;;4.73;4.33;;;;;;;-143.84;74.04;45030.03;5089132;28;20440;-70
2022/08/02 01:38:24;;;;;;;4.87;4.30;;;;;;;-143.84;73.99;45052.88;5089037;28;20937;-70
2022/08/02 01:40:53;;;;;;;5.10;4.70;;;;;;;-143.84;73.85;45052.88;5089389;28;20446;-70
2022/08/02 01:43:23;;;;;;;4.57;4.27;;;;;;;-143.84;74.10;45024.31;5089456;28;20798;-70
2022/08/02 01:45:53;;;;;;;4.13;3.83;;;;;;;-143.84;74.01;45047.16;5089154;28;20440;-70
2022/08/02 01:48:21;;;;;;;4.43;4.20;;;;;;;-143.84;73.92;45045.25;5089153;28;21017;-70
2022/08/02 01:50:52;;;;;;;4.60;4.20;;;;;;;-143.84;74.04;45033.84;5089130;28;20451;-70
2022/08/02 01:53:21;;;;;;;4.70;4.40;;;;;;;-143.84;73.76;45041.44;5088574;28;20945;-70
2022/08/02 01:55:52;;;;;;;4.73;4.43;;;;;;;-143.84;73.25;45037.66;5089133;28;20828;-70
2022/08/02 01:58:25;;;;;;;4.83;4.53;;;;;;;-143.84;72.76;45045.25;5088948;28;20483;-70
2022/08/02 02:00:53;;;;;;;5.13;4.27;;;;;;;-143.84;72.48;45050.97;5088874;28;20452;-70
2022/08/02 02:03:23;;;;;;;6.33;5.20;;;;;;;-143.84;72.60;45031.94;5089017;28;20483;-70
2022/08/02 02:05:53;;;;;;;5.03;4.60;;;;;;;-143.84;72.48;45056.69;5089218;28;20514;-70
2022/08/02 02:08:26;;;;;;;5.30;4.30;;;;;;;-143.84;72.27;45033.84;5089351;28;20841;-70
2022/08/02 02:10:55;;;;;;;4.23;3.93;;;;;;;-143.84;71.97;45035.75;5088353;28;20443;-70
2022/08/02 02:13:26;;;;;;;5.43;3.77;;;;;;;-143.84;71.61;45031.94;5088134;28;20439;-70
2022/08/02 02:15:54;;;;;;;4.83;4.43;;;;;;;-143.84;71.37;45033.84;5092080;28;20983;-70
2022/08/02 02:18:25;;;;;;;4.50;3.90;;;;;;;-143.84;71.18;45041.44;5092672;28;20489;-70
2022/08/02 02:20:52;;;;;;;5.30;4.90;;;;;;;-143.84;70.83;45037.66;5092556;28;20986;-70
2022/08/02 02:23:20;;;;;;;4.87;4.33;;;;;;;-143.84;71.01;45050.97;5092749;28;20540;-70
2022/08/02 02:25:48;;;;;;;5.40;5.00;;;;;;;-143.84;71.05;45033.84;5092740;28;20435;-70
2022/08/02 02:28:23;;;;;;;4.67;4.37;;;;;;;-143.84;71.08;45028.13;5093009;28;20440;-70
2022/08/02 02:30:55;;;;;;;5.50;5.00;;;;;;;-143.84;71.39;45031.94;5092796;28;20514;-70
2022/08/02 02:33:24;;;;;;;5.70;5.00;;;;;;;-143.84;71.37;45039.53;5093020;28;20455;-70
2022/08/02 02:35:53;;;;;;;6.50;4.40;;;;;;;-143.84;71.49;45043.34;5092838;28;20435;-70
2022/08/02 02:38:22;;;;;;;5.87;5.07;;;;;;;-143.84;71.79;45024.31;5092662;28;20990;-70
2022/08/02 02:40:49;;;;;;;5.70;5.20;;;;;;;-143.84;71.86;45026.22;5092389;28;20975;-70
2022/08/02 02:43:17;;;;;;;6.67;5.20;;;;;;;-143.84;71.94;45039.53;5091939;28;20475;-70
2022/08/02 02:45:46;;;;;;;5.43;5.03;;;;;;;-143.84;71.70;45024.31;5092222;28;20439;-70
2022/08/02 02:48:17;;;;;;;6.73;5.27;;;;;;;-143.84;71.78;45071.91;5092624;28;20962;-69
2022/08/02 02:50:45;;;;;;;8.60;5.37;;;;;;;-143.84;71.77;45024.31;5092420;28;21002;-70
2022/08/02 02:53:13;;;;;;;6.03;5.50;;;;;;;-143.84;71.97;45022.41;5092307;28;20443;-70
2022/08/02 02:55:42;;;;;;;4.90;4.60;;;;;;;-143.84;72.25;45041.44;5092271;28;20438;-70
2022/08/02 02:58:10;;;;;;;6.40;5.90;;;;;;;-143.84;72.19;45033.84;5105817;28;20477;-69
2022/08/02 03:03:25;;;;;;;5.70;5.30;;;;;;;-143.84;72.00;45026.22;5092232;28;20505;-70
2022/08/02 03:05:53;;;;;;;5.70;5.30;;;;;;;-143.84;71.84;45024.31;5092307;28;20933;-70
2022/08/02 03:08:20;;;;;;;7.00;5.53;;;;;;;-143.84;71.87;45049.06;5092206;28;20436;-70
2022/08/02 03:10:48;;;;;;;5.63;5.13;;;;;;;-143.84;71.75;45039.53;5092631;28;21328;-70
2022/08/02 03:13:16;;;;;;;5.47;4.97;;;;;;;-143.84;71.61;45049.06;5092377;28;20432;-70
2022/08/02 03:15:44;;;;;;;9.20;5.50;;;;;;;-143.84;72.01;45045.25;5091677;28;20432;-70
2022/08/02 03:18:11;;;;;;;6.13;5.40;;;;;;;-143.84;71.99;45022.41;5091534;28;20461;-70
2022/08/02 03:20:39;;;;;;;11.23;5.10;;;;;;;-143.84;72.16;45022.41;5091746;28;20451;-70
2022/08/02 03:23:06;;;;;;;6.27;5.70;;;;;;;-143.84;72.26;45024.31;5092097;28;20850;-70
2022/08/02 03:25:34;;;;;;;5.43;4.93;;;;;;;-143.84;72.36;45020.50;5091078;28;20440;-70
2022/08/02 03:28:01;;;;;;;5.43;4.80;;;;;;;-143.84;72.83;45037.66;5091977;28;20788;-70
2022/08/02 03:30:28;;;;;;;9.10;5.30;;;;;;;-143.84;72.77;45047.16;5091908;28;20440;-70
2022/08/02 03:32:55;;;;;;;4.83;4.50;;;;;;;-143.84;72.88;45043.34;5091762;28;20442;-70
2022/08/02 03:35:23;;;;;;;5.87;4.83;;;;;;;-143.84;73.26;45028.13;5090900;28;20501;-70
2022/08/02 03:37:54;;;;;;;6.33;5.10;;;;;;;-143.84;73.07;45028.13;5091026;28;20451;-70
2022/08/02 03:40:21;;;;;;;5.83;5.33;;;;;;;-143.84;72.68;45052.88;5090958;28;20443;-70
2022/08/02 03:42:50;;;;;;;5.47;4.93;;;;;;;-143.84;72.50;45033.84;5090901;28;20455;-70
2022/08/02 03:45:18;;;;;;;7.63;5.27;;;;;;;-143.84;72.06;45037.66;5091253;28;21053;-70
2022/08/02 03:47:46;;;;;;;5.70;5.10;;;;;;;-143.84;70.62;45058.59;5091476;28;20448;-70
2022/08/02 03:50:13;;;;;;;4.97;4.50;;;;;;;-143.84;68.70;45037.66;5091324;28;20440;-70
2022/08/02 03:52:42;;;;;;;5.00;4.67;;;;;;;-143.84;66.64;45007.19;5091305;28;20436;-70
2022/08/02 03:55:12;;;;;;;3.97;3.77;;;;;;;-143.84;63.38;45026.22;5091018;28;20444;-70
2022/08/02 03:57:40;;;;;;;4.83;4.27;;;;;;;-143.84;60.04;44997.66;5090985;28;20582;-70
2022/08/02 04:00:08;;;;;;;5.37;4.87;;;;;;;-143.84;57.97;45001.47;5091028;28;20493;-70
2022/08/02 04:02:36;;;;;;;4.43;4.13;;;;;;;-143.84;54.46;45001.47;5091285;28;20451;-70
2022/08/02 04:05:04;;;;;;;6.90;4.27;;;;;;;-143.84;52.36;44991.94;5091230;28;20468;-70
2022/08/02 04:07:31;;;;;;;5.10;4.43;;;;;;;-143.84;51.28;44984.31;5091241;28;20440;-70
2022/08/02 04:09:58;;;;;;;4.97;4.43;;;;;;;-143.84;49.29;44984.31;5090913;28;20497;-70
2022/08/02 04:12:26;;;;;;;4.67;3.87;;;;;;;-143.84;48.60;44955.75;5090886;28;20501;-70
2022/08/02 04:14:54;;;;;;;10.27;4.00;;;;;;;-143.84;48.14;44988.13;5090829;28;20428;-70
2022/08/02 04:17:23;;;;;;;5.60;4.20;;;;;;;-143.84;47.46;44974.81;5090604;28;20447;-70
2022/08/02 04:19:53;;;;;;;3.60;3.30;;;;;;;-143.84;47.60;44971.00;5090734;28;20439;-70
2022/08/02 04:22:25;;;;;;;4.43;4.03;;;;;;;-143.84;47.54;44955.75;5090942;28;20461;-70
2022/08/02 04:24:57;;;;;;;4.20;3.90;;;;;;;-143.84;48.29;44974.81;5089991;28;21057;-70
2022/08/02 04:27:26;;;;;;;4.23;3.83;;;;;;;-143.84;48.86;44951.97;5094320;28;20439;-70
2022/08/02 04:29:54;;;;;;;4.47;4.17;;;;;;;-143.84;49.02;44982.41;5111331;28;20439;-70
2022/08/02 04:32:23;;;;;;;4.47;4.07;;;;;;;-143.84;49.57;44980.53;5111077;28;20454;-70
2022/08/02 04:34:50;;;;;;;4.93;4.43;;;;;;;-143.84;49.97;44961.47;5110643;28;20450;-70
2022/08/02 04:37:17;;;;;;;5.63;4.00;;;;;;;-143.84;50.33;44967.19;5109509;28;20448;-70
2022/08/02 04:39:44;;;;;;;4.23;3.93;;;;;;;-143.84;50.49;44993.84;5110408;28;20944;-70
2022/08/02 04:42:21;;;;;;;7.80;4.03;;;;;;;-143.84;50.93;44965.28;5110314;28;20939;-70
2022/08/02 04:44:50;;;;;;;4.57;4.17;;;;;;;-143.84;50.90;44988.13;5110690;28;20581;-72
2022/08/02 04:47:18;;;;;;;6.60;3.93;;;;;;;-143.84;50.66;44976.72;5112447;28;20432;-73
2022/08/02 04:49:45;;;;;;;4.77;4.37;;;;;;;-143.84;50.94;44984.31;5111462;28;20439;-73
2022/08/02 04:52:12;;;;;;;4.70;4.40;;;;;;;-143.84;51.53;45012.88;5110637;28;20434;-73
2022/08/02 04:54:39;;;;;;;5.30;4.83;;;;;;;-143.84;51.90;44957.66;5110534;28;20504;-73
2022/08/02 04:59:49;;;;;;;14.80;5.23;;;;;;;-143.84;51.56;44967.19;5109680;28;20431;-74
2022/08/02 05:02:16;;;;;;;6.13;5.53;;;;;;;-143.84;51.15;44959.56;5110450;28;20477;-74
2022/08/02 05:04:43;;;;;;;5.30;4.90;;;;;;;-143.84;51.01;44965.28;5110276;28;20531;-73
2022/08/02 05:07:10;;;;;;;6.63;4.80;;;;;;;-143.84;51.14;44951.97;5110684;28;20443;-71
2022/08/02 05:09:38;;;;;;;5.00;4.50;;;;;;;-143.84;51.13;44967.19;5111413;28;20438;-72
2022/08/02 05:12:05;;;;;;;14.33;5.27;;;;;;;-143.84;50.88;44976.72;5111684;28;20439;-73
2022/08/02 05:14:32;;;;;;;7.67;5.30;;;;;;;-143.84;50.65;44957.66;5112210;28;20495;-73
2022/08/02 05:17:01;;;;;;;5.80;5.30;;;;;;;-143.84;50.28;44972.91;5111830;28;20439;-73
2022/08/02 05:19:28;;;;;;;5.57;5.03;;;;;;;-143.84;49.80;44957.66;5111511;28;20449;-73
2022/08/02 05:21:55;;;;;;;5.57;4.83;;;;;;;-143.84;49.19;44974.81;5111459;28;20462;-73
2022/08/02 05:24:23;;;;;;;5.97;5.00;;;;;;;-143.84;48.98;44972.91;5111388;28;20470;-73
2022/08/02 05:26:50;;;;;;;5.83;5.30;;;;;;;-143.84;48.67;44963.38;5111033;28;20439;-73
2022/08/02 05:29:17;;;;;;;5.27;4.97;;;;;;;-143.84;48.69;44961.47;5111288;28;20522;-73
2022/08/02 05:31:45;;;;;;;7.60;5.73;;;;;;;-143.84;48.48;44942.44;5110196;28;20446;-72
2022/08/02 05:34:14;;;;;;;6.83;5.40;;;;;;;-143.84;48.20;44967.19;5110414;28;20850;-73
2022/08/02 05:36:42;;;;;;;6.40;5.80;;;;;;;-143.84;48.15;44955.75;5109958;28;20443;-73
2022/08/02 05:39:09;;;;;;;6.13;5.33;;;;;;;-143.84;46.86;44957.66;5109851;28;20982;-73
2022/08/02 05:41:36;;;;;;;6.57;5.20;;;;;;;-143.84;47.38;44948.16;5109360;28;20466;-72
2022/08/02 05:44:04;;;;;;;6.43;6.00;;;;;;;-143.84;46.96;44934.81;5109858;28;20509;-73
2022/08/02 05:46:31;;;;;;;6.20;5.60;;;;;;;-143.84;47.29;44967.19;5110114;28;20435;-73
2022/08/02 05:48:59;;;;;;;8.37;5.10;;;;;;;-143.84;46.41;44965.28;5111072;28;20435;-72
2022/08/02 05:51:36;;;;;;;5.50;4.97;;;;;;;-143.84;45.75;44961.47;5111078;28;20430;-73
2022/08/02 05:54:11;;;;;;;5.50;4.83;;;;;;;-143.84;45.83;44948.16;5110975;28;20450;-73
2022/08/02 05:56:46;;;;;;;6.50;5.90;;;;;;;-143.84;45.21;44908.16;5110050;28;20441;-73
2022/08/02 05:59:21;;;;;;;5.00;4.57;;;;;;;-143.84;43.99;44917.69;5110136;28;20504;-73
2022/08/02 06:01:55;;;;;;;5.43;5.00;;;;;;;-143.84;43.76;44931.00;5099177;28;20459;-72
2022/08/02 06:04:26;;;;;;;5.70;5.20;;;;;;;-143.84;43.41;44927.19;5090638;28;20551;-73
2022/08/02 06:06:57;;;;;;;5.33;4.83;;;;;;;-143.84;43.61;44953.88;5089685;28;20440;-73
2022/08/02 06:09:26;;;;;;;7.53;5.13;;;;;;;-143.84;44.22;44915.78;5090092;28;20901;-73
2022/08/02 06:11:54;;;;;;;7.67;4.93;;;;;;;-143.84;44.49;44963.38;5090519;28;20550;-73
2022/08/02 06:14:21;;;;;;;6.20;5.70;;;;;;;-143.84;44.84;44944.34;5090782;28;20424;-73
2022/08/02 06:16:51;;;;;;;5.20;4.80;;;;;;;-143.84;44.67;44932.91;5090664;28;20431;-73
2022/08/02 06:19:19;;;;;;;5.53;5.03;;;;;;;-143.84;43.69;44932.91;5090639;28;20458;-73
2022/08/02 06:21:49;;;;;;;6.23;5.63;;;;;;;-143.84;44.57;44919.59;5090448;28;20888;-72
2022/08/02 06:24:19;;;;;;;6.47;4.90;;;;;;;-143.84;43.68;44915.78;5090535;28;20518;-73
2022/08/02 06:26:51;;;;;;;5.73;5.17;;;;;;;-143.84;42.79;44923.41;5090652;28;20440;-72
2022/08/02 06:29:20;;;;;;;8.33;5.60;;;;;;;-143.84;42.72;44927.19;5090235;28;20510;-72
2022/08/02 06:31:49;;;;;;;7.80;5.83;;;;;;;-143.84;42.14;44927.19;5090258;28;20486;-72
2022/08/02 06:34:17;;;;;;;9.20;6.17;;;;;;;-143.84;41.51;44908.16;5090313;28;20435;-73
2022/08/02 06:36:51;;;;;;;8.03;5.40;;;;;;;-143.84;41.31;44879.59;5088850;28;20436;-73
2022/08/02 06:39:26;;;;;;;5.90;5.40;;;;;;;-143.84;40.88;44908.16;5089469;28;20455;-73
2022/08/02 06:41:58;;;;;;;5.73;5.23;;;;;;;-143.84;40.45;44885.31;5089993;28;20995;-73
2022/08/02 06:44:25;;;;;;;5.67;5.17;;;;;;;-143.84;40.29;44879.59;5089912;28;20482;-73
2022/08/02 06:46:53;;;;;;;4.83;4.50;;;;;;;-143.84;40.12;44885.31;5090225;28;20436;-73
2022/08/02 06:49:20;;;;;;;6.10;5.53;;;;;;;-143.84;40.26;44875.78;5089985;28;20919;-73
2022/08/02 06:51:47;;;;;;;6.30;4.50;;;;;;;-143.84;39.09;44873.88;5090344;28;20537;-72
2022/08/02 06:54:20;;;;;;;4.87;4.57;;;;;;;-143.84;39.23;44866.28;5090147;28;20432;-72
2022/08/02 06:56:49;;;;;;;8.10;4.70;;;;;;;-143.84;38.51;44875.78;5090170;28;20551;-73
2022/08/02 06:59:16;;;;;;;8.60;4.90;;;;;;;-143.84;37.68;44885.31;5090402;28;20444;-73
2022/08/02 07:01:43;;;;;;;6.23;4.93;;;;;;;-143.84;38.09;44875.78;5092458;28;20451;-73
2022/08/02 07:04:11;;;;;;;8.00;5.03;;;;;;;-143.84;38.38;44892.94;5093806;28;20497;-73
2022/08/02 07:06:38;;;;;;;5.47;5.07;;;;;;;-143.84;36.98;44858.66;5094071;28;20780;-72
2022/08/02 07:09:05;;;;;;;5.80;4.33;;;;;;;-143.84;37.38;44860.56;5093693;28;20737;-73
2022/08/02 07:11:32;;;;;;;11.23;5.20;;;;;;;-143.84;37.58;44856.75;5093872;28;20424;-73
2022/08/02 07:14:01;;;;;;;6.23;4.40;;;;;;;-143.84;37.08;44877.69;5093946;28;20455;-73
2022/08/02 07:16:28;;;;;;;5.70;4.50;;;;;;;-143.84;36.47;44835.81;5093703;28;20861;-73
2022/08/02 07:18:55;;;;;;;4.63;4.33;;;;;;;-143.84;37.01;44828.19;5093742;28;20470;-72
2022/08/02 07:21:23;;;;;;;11.03;4.40;;;;;;;-143.84;37.25;44860.56;5093874;28;20440;-72
2022/08/02 07:23:50;;;;;;;5.97;4.93;;;;;;;-143.84;36.99;44854.84;5093828;28;20435;-72
2022/08/02 07:26:17;;;;;;;4.57;4.33;;;;;;;-143.84;36.70;44875.78;5093691;28;20479;-72
2022/08/02 07:28:44;;;;;;;5.53;4.17;;;;;;;-143.84;37.62;44851.03;5093579;28;20501;-73
2022/08/02 07:31:12;;;;;;;5.00;4.50;;;;;;;-143.84;37.49;44856.75;5093753;28;20557;-73
2022/08/02 07:33:40;;;;;;;5.50;4.10;;;;;;;-143.84;36.21;44839.63;5093370;28;20460;-73
2022/08/02 07:36:08;;;;;;;7.20;3.83;;;;;;;-143.84;35.93;44839.63;5093025;28;20955;-72
2022/08/02 07:38:35;;;;;;;4.83;4.33;;;;;;;-143.84;35.55;44820.56;5093453;28;20435;-72
2022/08/02 07:41:03;;;;;;;4.77;4.47;;;;;;;-143.84;36.45;44824.38;5093313;28;20929;-72
2022/08/02 07:43:30;;;;;;;5.37;4.43;;;;;;;-143.84;35.16;44843.44;5093172;28;20455;-73
2022/08/02 07:45:57;;;;;;;4.03;3.83;;;;;;;-143.84;35.89;44833.91;5093262;28;20476;-73
2022/08/02 07:48:25;;;;;;;4.63;4.17;;;;;;;-143.84;35.69;44852.94;5092891;28;20432;-73
2022/08/02 07:50:53;;;;;;;3.97;3.77;;;;;;;-143.84;36.14;44871.97;5092670;28;20509;-73
2022/08/02 07:53:20;;;;;;;4.70;4.13;;;;;;;-143.84;36.74;44870.09;5092647;28;20489;-73
2022/08/02 07:55:47;;;;;;;12.30;4.67;;;;;;;-143.84;36.26;44873.88;5093230;28;20842;-73
2022/08/02 07:58:15;;;;;;;4.43;4.03;;;;;;;-143.84;36.21;44845.31;5092887;28;20471;-72
2022/08/02 08:00:43;;;;;;;8.67;4.40;;;;;;;-143.84;37.19;44835.81;5092844;28;20976;-73
2022/08/02 08:03:10;;;;;;;4.80;4.40;;;;;;;-143.84;36.00;44870.09;5092901;28;20436;-72
2022/08/02 08:05:39;;;;;;;4.07;3.77;;;;;;;-143.84;36.49;44851.03;5092889;28;20988;-72
2022/08/02 08:08:06;;;;;;;3.90;3.70;;;;;;;-143.84;35.32;44847.22;5092808;28;20450;-72
2022/08/02 08:10:34;;;;;;;5.27;3.70;;;;;;;-143.84;36.08;44870.09;5092870;28;20455;-72
2022/08/02 08:13:01;;;;;;;4.27;3.87;;;;;;;-143.84;36.17;44824.38;5092690;28;20440;-72
2022/08/02 08:15:28;;;;;;;11.90;4.67;;;;;;;-143.84;35.36;44871.97;5091807;28;20531;-70
2022/08/02 08:17:55;;;;;;;4.30;4.00;;;;;;;-143.84;35.79;44833.91;5089582;28;20439;-70
2022/08/02 08:20:23;;;;;;;4.30;4.00;;;;;;;-143.84;36.13;44870.09;5090082;28;20952;-70
2022/08/02 08:22:52;;;;;;;4.30;3.90;;;;;;;-143.84;36.30;44839.63;5089741;28;20489;-70
2022/08/02 08:25:19;;;;;;;4.37;4.03;;;;;;;-143.84;37.17;44837.72;5090217;28;20484;-70
2022/08/02 08:27:50;;;;;;;4.40;4.00;;;;;;;-143.84;37.11;44847.22;5090451;28;20432;-70
2022/08/02 08:30:18;;;;;;;4.07;3.77;;;;;;;-143.84;35.06;44845.31;5090293;28;20442;-70
2022/08/02 08:32:46;;;;;;;4.33;4.10;;;;;;;-143.84;35.58;44845.31;5090293;28;20440;-70
2022/08/02 08:35:13;;;;;;;7.00;4.13;;;;;;;-143.84;36.17;44862.47;5090517;28;20980;-70
2022/08/02 08:37:41;;;;;;;5.80;3.73;;;;;;;-143.84;36.97;44837.72;5090514;28;20446;-70
2022/08/02 08:40:11;;;;;;;4.33;4.03;;;;;;;-143.84;36.38;44837.72;5090308;28;20439;-70
2022/08/02 08:42:39;;;;;;;10.23;3.60;;;;;;;-143.84;35.52;44852.94;5090421;28;20436;-70
2022/08/02 08:45:08;;;;;;;4.07;3.80;;;;;;;-143.84;35.16;44849.13;5089910;28;20931;-70
2022/08/02 08:47:38;;;;;;;3.90;3.60;;;;;;;-143.84;35.48;44837.72;5089901;28;20440;-70
2022/08/02 08:50:08;;;;;;;3.77;3.40;;;;;;;-143.84;35.36;44841.53;5090096;28;20435;-70
2022/08/02 08:52:40;;;;;;;4.80;3.53;;;;;;;-143.84;35.22;44835.81;5089742;28;20443;-70
2022/08/02 08:55:14;;;;;;;5.63;3.70;;;;;;;-143.84;35.93;44822.47;5090126;28;20781;-70
2022/08/02 08:57:43;;;;;;;4.97;3.70;;;;;;;-143.84;35.33;44843.44;5089704;28;20995;-70
2022/08/02 09:00:12;;;;;;;4.30;3.90;;;;;;;-143.84;36.16;44858.66;5089543;28;20446;-70
2022/08/02 09:02:42;;;;;;;3.70;3.40;;;;;;;-143.84;34.99;44841.53;5089746;28;20527;-70
2022/08/02 09:05:11;;;;;;;3.70;3.40;;;;;;;-143.84;35.28;44847.22;5089690;28;20480;-70
2022/08/02 09:07:41;;;;;;;4.10;3.90;;;;;;;-143.84;35.32;44847.22;5089390;28;20888;-70
2022/08/02 09:10:37;;;;;;;4.37;3.97;;;;;;;-143.84;35.54;44828.19;5089661;28;20440;-70
2022/08/02 09:13:15;;;;;;;4.23;3.67;;;;;;;-143.84;36.74;44797.72;5090241;28;20440;-71
2022/08/02 09:15:45;;;;;;;3.90;3.60;;;;;;;-143.84;35.11;44832.00;5089402;28;20451;-70
2022/08/02 09:18:13;;;;;;;5.23;3.60;;;;;;;-143.84;35.76;44835.81;5089673;28;20767;-70
2022/08/02 09:20:57;;;;;;;4.13;3.83;;;;;;;-143.84;35.48;44807.25;5089356;28;20432;-70
2022/08/02 09:23:25;;;;;;;5.27;3.33;;;;;;;-143.84;35.03;44833.91;5088805;28;20493;-70
2022/08/02 09:25:58;;;;;;;6.80;3.40;;;;;;;-143.84;35.76;44870.09;5088937;28;20486;-70
2022/08/02 09:28:30;;;;;;;5.03;3.80;;;;;;;-143.84;35.94;44852.94;5089086;28;20444;-70
2022/08/02 09:31:02;;;;;;;3.40;3.20;;;;;;;-143.84;35.65;44845.31;5088980;28;20498;-70
2022/08/02 09:33:30;;;;;;;3.90;3.57;;;;;;;-143.84;35.48;44835.81;5088709;28;20995;-70
2022/08/02 09:36:02;;;;;;;3.60;3.30;;;;;;;-143.84;35.39;44862.47;5088783;28;20462;-70
2022/08/02 09:38:30;;;;;;;7.43;3.20;;;;;;;-143.84;35.67;44847.22;5089003;28;20440;-70
2022/08/02 09:41:00;;;;;;;5.83;3.20;;;;;;;-143.84;36.39;44871.97;5089005;28;20440;-70
2022/08/02 09:43:38;;;;;;;3.50;3.20;;;;;;;-143.84;35.73;44847.22;5088897;28;20444;-70
2022/08/02 09:46:16;;;;;;;2.80;2.60;;;;;;;-143.84;35.42;44866.28;5088853;28;21054;-70
2022/08/02 09:48:51;;;;;;;3.60;3.27;;;;;;;-143.84;35.22;44891.03;5088587;28;20448;-70
2022/08/02 09:51:21;;;;;;;6.37;3.20;;;;;;;-143.84;35.66;44862.47;5088703;28;20489;-70
2022/08/02 09:53:54;;;;;;;3.53;3.20;;;;;;;-143.84;35.39;44832.00;5088567;28;20436;-70
2022/08/02 09:56:23;;;;;;;2.60;2.43;;;;;;;-143.84;34.78;44862.47;5088896;28;20505;-70
2022/08/02 09:58:53;;;;;;;3.23;3.03;;;;;;;-143.84;34.41;44812.97;5088619;28;20528;-70
2022/08/02 10:01:21;;;;;;;3.30;2.97;;;;;;;-143.84;34.42;44858.66;5089240;28;20447;-70
2022/08/02 10:03:57;;;;;;;3.17;2.90;;;;;;;-143.84;34.86;44818.66;5089064;28;20547;-70
2022/08/02 10:06:24;;;;;;;6.03;2.97;;;;;;;-143.84;34.70;44833.91;5088683;28;20475;-70
2022/08/02 10:08:53;;;;;;;3.10;2.90;;;;;;;-143.84;34.08;44841.53;5088840;28;21021;-70
2022/08/02 10:11:23;;;;;;;3.33;2.97;;;;;;;-143.84;35.02;44837.72;5088827;28;20823;-70
2022/08/02 10:13:51;;;;;;;3.20;3.00;;;;;;;-143.84;35.17;44837.72;5088887;28;20444;-70
2022/08/02 10:16:22;;;;;;;2.83;2.73;;;;;;;-143.84;35.14;44862.47;5088592;28;20521;-70
2022/08/02 10:18:50;;;;;;;2.90;2.70;;;;;;;-143.84;35.05;44887.22;5088744;28;20440;-70
2022/08/02 10:21:22;;;;;;;3.30;3.00;;;;;;;-143.84;36.61;44862.47;5089076;28;21113;-70
2022/08/02 10:23:50;;;;;;;3.30;3.10;;;;;;;-143.84;36.12;44856.75;5088667;28;20440;-70
2022/08/02 10:26:20;;;;;;;3.60;3.30;;;;;;;-143.84;35.53;44858.66;5088610;28;20479;-70
2022/08/02 10:28:50;;;;;;;2.83;2.63;;;;;;;-143.84;35.96;44892.94;5088782;28;20436;-70
2022/08/02 10:31:24;;;;;;;3.03;2.83;;;;;;;-143.84;35.21;44852.94;5088700;28;20457;-70
2022/08/02 10:33:54;;;;;;;3.77;3.07;;;;;;;-143.84;34.38;44847.22;5088477;28;20439;-70
2022/08/02 10:36:25;;;;;;;2.57;2.47;;;;;;;-143.84;34.79;44820.56;5091984;28;21397;-70
2022/08/02 10:38:54;;;;;;;2.90;2.70;;;;;;;-143.84;34.44;44843.44;5091701;28;20448;-70
2022/08/02 10:41:43;;;;;;;3.70;2.50;;;;;;;-143.84;34.55;44873.88;5091775;28;20497;-70
2022/08/02 10:44:20;;;;;;;4.20;3.20;;;;;;;-143.84;34.67;44841.53;5092030;28;20860;-70
2022/08/02 10:46:47;;;;;;;3.33;3.13;;;;;;;-143.84;34.48;44835.81;5092043;28;20544;-70
2022/08/02 10:49:16;;;;;;;3.60;3.30;;;;;;;-143.84;35.08;44856.75;5092319;28;20440;-70
2022/08/02 10:52:06;;;;;;;2.80;2.70;;;;;;;-143.84;34.80;44851.03;5092447;28;20446;-70
2022/08/02 10:54:36;;;;;;;5.80;3.00;;;;;;;-143.84;34.68;44873.88;5092677;28;20517;-70
2022/08/02 10:57:04;;;;;;;3.83;3.50;;;;;;;-143.84;34.54;44866.28;5091676;28;20498;-70
2022/08/02 10:59:34;;;;;;;3.50;2.87;;;;;;;-143.84;34.39;44854.84;5092438;28;20516;-70
2022/08/02 11:02:03;;;;;;;3.40;3.10;;;;;;;-143.84;35.56;44837.72;5092244;28;21013;-70
2022/08/02 11:04:32;;;;;;;3.10;3.00;;;;;;;-143.84;35.20;44835.81;5092206;28;20440;-70
2022/08/02 11:07:10;;;;;;;6.67;3.43;;;;;;;-143.84;34.45;44812.97;5091597;28;20729;-70
2022/08/02 11:09:38;;;;;;;3.20;3.00;;;;;;;-143.84;35.62;44822.47;5090991;28;20465;-70
2022/08/02 11:12:06;;;;;;;3.40;3.10;;;;;;;-143.84;34.77;44818.66;5090929;28;20439;-71
2022/08/02 11:14:38;;;;;;;8.17;3.23;;;;;;;-143.84;35.07;44862.47;5091268;28;20444;-70
2022/08/02 11:17:13;;;;;;;4.00;3.70;;;;;;;-143.84;34.45;44839.63;5091254;28;20446;-70
2022/08/02 11:20:16;;;;;;;3.77;3.53;;;;;;;-143.84;35.19;44864.38;5091593;28;20439;-70
2022/08/02 11:22:45;;;;;;;11.00;3.70;;;;;;;-143.84;35.19;44870.09;5091574;28;20526;-70
2022/08/02 11:25:35;;;;;;;4.60;4.30;;;;;;;-143.84;33.87;44877.69;5091732;28;20485;-70
2022/08/02 11:28:11;;;;;;;4.17;3.83;;;;;;;-143.84;35.48;44851.03;5091518;28;20440;-70
2022/08/02 11:30:40;;;;;;;5.87;3.53;;;;;;;-143.84;35.54;44807.25;5091478;28;20443;-70
2022/08/02 11:33:08;;;;;;;5.30;4.00;;;;;;;-143.84;34.41;44868.19;5091508;28;20443;-70